PWSweather.com
Personal Weather Stations
Station Observations
ISARDEGN48
BittiIT 08021

BittiIT 08021

Lat: 40.4805, Lon: 9.3887

Elevation: 1804

Station Type: La Crosse WS2355

http://meteobitti.altervista.org

Latest ConditionsUpdated 4:00:01 PM GMT+01:01 Tuesday, Apr 23, 2019
Currently Today's Max Today's Min Today's Average
Temperature 54.9°F12.7°C 59.4°F15.2°C 50.7°F10.4°C 55.1°F12.8°C
Dew Point 51.0°F10.6°C 52.7°F11.5°C 46.8°F8.2°C 50.3°F10.2°C
Winds 9.2 mph SSW14.8 kmh SSW 18.3 mph -29.5 kmh - - 4.1 mph 6.6 kmh
Wind Gusts 17.4 mph28.0 kmh 21.7 mph34.9 kmh - -
Humidity 87% 93% 74% 84%
Pressure 30.43 in1030.5 mb 30.43 in1030.5 mb 30.29 in1025.7 mb -
Precipitation - 0.04 in1.0 mm - -
Hour Temp Dew Point Humidity Winds Wind Gusts Pressure Precip Precip Rate Daily Precip Total
04:00 PM 54.9°F12.7°C 51.0°F10.6°C 87% 9.2 mph SSW14.8 kmh SSW 17.4 mph28.0 kmh 30.43 in1030.5 mb 0.00 in0.0 mm 0.00 in0.0 mm 0.04 in1.0 mm
03:55 PM 54.9°F12.7°C 51.0°F10.6°C 87% 9.2 mph SSW14.8 kmh SSW 17.4 mph28.0 kmh 30.42 in1030.1 mb 0.00 in0.0 mm 0.00 in0.0 mm 0.04 in1.0 mm
03:50 PM 54.7°F12.6°C 50.8°F10.4°C 87% 11.9 mph SSW19.2 kmh SSW 14.3 mph23.0 kmh 30.42 in1030.1 mb 0.00 in0.0 mm 0.00 in0.0 mm 0.04 in1.0 mm
03:45 PM 54.7°F12.6°C 50.8°F10.4°C 87% 2.0 mph SSW3.2 kmh SSW 15.2 mph24.5 kmh 30.42 in1030.1 mb 0.00 in0.0 mm 0.00 in0.0 mm 0.04 in1.0 mm
03:40 PM 54.9°F12.7°C 51.0°F10.6°C 87% 14.8 mph SSW23.8 kmh SSW 15.2 mph24.5 kmh 30.42 in1030.1 mb 0.00 in0.0 mm 0.00 in0.0 mm 0.04 in1.0 mm
03:35 PM 55.0°F12.8°C 51.2°F10.7°C 87% 6.7 mph SSW10.8 kmh SSW 11.9 mph19.2 kmh 30.42 in1030.1 mb 0.00 in0.0 mm 0.00 in0.0 mm 0.04 in1.0 mm
03:30 PM 55.2°F12.9°C 51.4°F10.8°C 87% 3.4 mph SSW5.5 kmh SSW 11.9 mph19.2 kmh 30.42 in1030.1 mb 0.00 in0.0 mm 0.00 in0.0 mm 0.04 in1.0 mm
03:20 PM 55.4°F13.0°C 51.2°F10.7°C 86% 4.9 mph SSW7.9 kmh SSW 15.2 mph24.5 kmh 30.41 in1029.8 mb 0.00 in0.0 mm 0.00 in0.0 mm 0.04 in1.0 mm
03:15 PM 55.8°F13.2°C 51.6°F10.9°C 86% 3.1 mph SSW5.0 kmh SSW 13.6 mph21.9 kmh 30.40 in1029.5 mb 0.00 in0.0 mm 0.00 in0.0 mm 0.04 in1.0 mm
03:10 PM 55.9°F13.3°C 52.1°F11.2°C 87% 1.6 mph SSW2.6 kmh SSW 13.4 mph21.6 kmh 30.39 in1029.1 mb 0.00 in0.0 mm 0.00 in0.0 mm 0.04 in1.0 mm
03:05 PM 55.9°F13.3°C 52.1°F11.2°C 87% 9.8 mph SSW15.8 kmh SSW 17.0 mph27.4 kmh 30.39 in1029.1 mb 0.00 in0.0 mm 0.00 in0.0 mm 0.04 in1.0 mm
03:00 PM 55.9°F13.3°C 52.1°F11.2°C 87% 11.0 mph SSW17.7 kmh SSW 17.0 mph27.4 kmh 30.39 in1029.1 mb 0.00 in0.0 mm 0.00 in0.0 mm 0.04 in1.0 mm
02:55 PM 55.9°F13.3°C 52.1°F11.2°C 87% 11.6 mph SSW18.7 kmh SSW 15.9 mph25.6 kmh 30.39 in1029.1 mb 0.00 in0.0 mm 0.00 in0.0 mm 0.04 in1.0 mm
02:50 PM 55.8°F13.2°C 51.9°F11.1°C 87% 13.4 mph SSW21.6 kmh SSW 14.8 mph23.8 kmh 30.39 in1029.1 mb 0.00 in0.0 mm 0.00 in0.0 mm 0.04 in1.0 mm
02:45 PM 55.9°F13.3°C 52.1°F11.2°C 87% 11.4 mph SSW18.3 kmh SSW 16.1 mph25.9 kmh 30.39 in1029.1 mb 0.00 in0.0 mm 0.00 in0.0 mm 0.04 in1.0 mm
02:40 PM 55.8°F13.2°C 51.6°F10.9°C 86% 6.3 mph SSW10.1 kmh SSW 16.1 mph25.9 kmh 30.39 in1029.1 mb 0.00 in0.0 mm 0.00 in0.0 mm 0.04 in1.0 mm
02:35 PM 55.9°F13.3°C 52.1°F11.2°C 87% 4.0 mph SSW6.4 kmh SSW 13.2 mph21.2 kmh 30.40 in1029.5 mb 0.00 in0.0 mm 0.00 in0.0 mm 0.04 in1.0 mm
02:30 PM 56.1°F13.4°C 51.9°F11.1°C 86% 5.8 mph SSW9.3 kmh SSW 10.5 mph16.9 kmh 30.40 in1029.5 mb 0.00 in0.0 mm 0.00 in0.0 mm 0.04 in1.0 mm
02:20 PM 56.8°F13.8°C 52.3°F11.3°C 85% 5.1 mph SSW8.2 kmh SSW 14.5 mph23.3 kmh 30.40 in1029.5 mb 0.00 in0.0 mm 0.00 in0.0 mm 0.04 in1.0 mm
02:15 PM 57.0°F13.9°C 52.5°F11.4°C 85% 4.7 mph SSW7.6 kmh SSW 14.5 mph23.3 kmh 30.40 in1029.5 mb 0.00 in0.0 mm 0.00 in0.0 mm 0.04 in1.0 mm
02:10 PM 57.0°F13.9°C 52.2°F11.2°C 84% 5.4 mph SSW8.7 kmh SSW 13.0 mph20.9 kmh 30.39 in1029.1 mb 0.00 in0.0 mm 0.00 in0.0 mm 0.04 in1.0 mm
02:05 PM 57.4°F14.1°C 52.2°F11.2°C 83% 4.7 mph SW7.6 kmh SW 13.0 mph20.9 kmh 30.39 in1029.1 mb 0.00 in0.0 mm 0.00 in0.0 mm 0.04 in1.0 mm
02:00 PM 57.7°F14.3°C 52.6°F11.4°C 83% 9.4 mph SW15.1 kmh SW 12.8 mph20.6 kmh 30.39 in1029.1 mb 0.00 in0.0 mm 0.00 in0.0 mm 0.04 in1.0 mm
01:55 PM 58.1°F14.5°C 52.6°F11.4°C 82% 1.3 mph SSW2.1 kmh SSW 12.8 mph20.6 kmh 30.39 in1029.1 mb 0.00 in0.0 mm 0.00 in0.0 mm 0.04 in1.0 mm
01:50 PM 58.5°F14.7°C 52.7°F11.5°C 81% 6.5 mph SSW10.5 kmh SSW 19.0 mph30.6 kmh 30.39 in1029.1 mb 0.00 in0.0 mm 0.00 in0.0 mm 0.04 in1.0 mm
01:45 PM 58.5°F14.7°C 52.3°F11.3°C 80% 3.8 mph SSW6.1 kmh SSW 19.0 mph30.6 kmh 30.39 in1029.1 mb 0.00 in0.0 mm 0.00 in0.0 mm 0.04 in1.0 mm
01:40 PM 58.3°F14.6°C 52.2°F11.2°C 80% 8.5 mph SW13.7 kmh SW 13.6 mph21.9 kmh 30.39 in1029.1 mb 0.00 in0.0 mm 0.00 in0.0 mm 0.04 in1.0 mm
01:35 PM 57.9°F14.4°C 51.4°F10.8°C 79% 6.9 mph SW11.1 kmh SW 17.7 mph28.5 kmh 30.39 in1029.1 mb 0.00 in0.0 mm 0.00 in0.0 mm 0.04 in1.0 mm
01:30 PM 57.9°F14.4°C 51.4°F10.8°C 79% 9.2 mph SW14.8 kmh SW 17.7 mph28.5 kmh 30.39 in1029.1 mb 0.00 in0.0 mm 0.00 in0.0 mm 0.04 in1.0 mm
01:20 PM 58.5°F14.7°C 51.6°F10.9°C 78% 8.3 mph SW13.4 kmh SW 18.3 mph29.5 kmh 30.39 in1029.1 mb 0.00 in0.0 mm 0.00 in0.0 mm 0.04 in1.0 mm
01:15 PM 58.6°F14.8°C 51.4°F10.8°C 77% 10.3 mph SW16.6 kmh SW 20.6 mph33.2 kmh 30.39 in1029.1 mb 0.00 in0.0 mm 0.00 in0.0 mm 0.04 in1.0 mm
01:10 PM 58.6°F14.8°C 51.4°F10.8°C 77% 3.6 mph SW5.8 kmh SW 20.6 mph33.2 kmh 30.38 in1028.8 mb 0.00 in0.0 mm 0.00 in0.0 mm 0.04 in1.0 mm
01:05 PM 58.8°F14.9°C 51.6°F10.9°C 77% 16.8 mph SW27.0 kmh SW 20.4 mph32.8 kmh 30.38 in1028.8 mb 0.00 in0.0 mm 0.00 in0.0 mm 0.04 in1.0 mm
01:00 PM 58.8°F14.9°C 51.6°F10.9°C 77% 7.6 mph SW12.2 kmh SW 20.4 mph32.8 kmh 30.38 in1028.8 mb 0.00 in0.0 mm 0.00 in0.0 mm 0.04 in1.0 mm
12:55 PM 58.6°F14.8°C 51.4°F10.8°C 77% 12.8 mph SW20.6 kmh SW 19.0 mph30.6 kmh 30.38 in1028.8 mb 0.00 in0.0 mm 0.00 in0.0 mm 0.04 in1.0 mm
12:50 PM 58.6°F14.8°C 51.4°F10.8°C 77% 5.8 mph SW9.3 kmh SW 19.0 mph30.6 kmh 30.38 in1028.8 mb 0.00 in0.0 mm 0.00 in0.0 mm 0.04 in1.0 mm
12:45 PM 58.6°F14.8°C 51.4°F10.8°C 77% 9.2 mph SW14.8 kmh SW 19.5 mph31.4 kmh 30.38 in1028.8 mb 0.00 in0.0 mm 0.00 in0.0 mm 0.04 in1.0 mm
12:40 PM 58.6°F14.8°C 51.4°F10.8°C 77% 8.7 mph SW14.0 kmh SW 21.7 mph34.9 kmh 30.38 in1028.8 mb 0.00 in0.0 mm 0.00 in0.0 mm 0.04 in1.0 mm
12:35 PM 58.8°F14.9°C 51.6°F10.9°C 77% 10.5 mph SW16.9 kmh SW 21.7 mph34.9 kmh 30.38 in1028.8 mb 0.00 in0.0 mm 0.00 in0.0 mm 0.04 in1.0 mm
12:30 PM 58.5°F14.7°C 51.6°F10.9°C 78% 3.4 mph SW5.5 kmh SW 11.9 mph19.2 kmh 30.38 in1028.8 mb 0.00 in0.0 mm 0.00 in0.0 mm 0.04 in1.0 mm
12:20 PM 57.9°F14.4°C 51.4°F10.8°C 79% 3.4 mph SW5.5 kmh SW 19.0 mph30.6 kmh 30.38 in1028.8 mb 0.00 in0.0 mm 0.00 in0.0 mm 0.04 in1.0 mm
12:15 PM 57.9°F14.4°C 51.4°F10.8°C 79% 5.1 mph SW8.2 kmh SW 16.6 mph26.7 kmh 30.38 in1028.8 mb 0.00 in0.0 mm 0.00 in0.0 mm 0.04 in1.0 mm
12:10 PM 57.7°F14.3°C 51.6°F10.9°C 80% 3.1 mph SW5.0 kmh SW 17.2 mph27.7 kmh 30.38 in1028.8 mb 0.00 in0.0 mm 0.00 in0.0 mm 0.04 in1.0 mm
12:05 PM 57.4°F14.1°C 51.6°F10.9°C 81% 5.4 mph SW8.7 kmh SW 20.6 mph33.2 kmh 30.38 in1028.8 mb 0.00 in0.0 mm 0.00 in0.0 mm 0.04 in1.0 mm
12:00 PM 57.0°F13.9°C 50.9°F10.5°C 80% 15.2 mph SW24.5 kmh SW 20.6 mph33.2 kmh 30.38 in1028.8 mb 0.00 in0.0 mm 0.00 in0.0 mm 0.04 in1.0 mm
11:55 AM 57.0°F13.9°C 51.2°F10.7°C 81% 2.5 mph SW4.0 kmh SW 16.6 mph26.7 kmh 30.38 in1028.8 mb 0.00 in0.0 mm 0.00 in0.0 mm 0.04 in1.0 mm
11:50 AM 57.4°F14.1°C 51.6°F10.9°C 81% 4.7 mph SW7.6 kmh SW 15.2 mph24.5 kmh 30.38 in1028.8 mb 0.00 in0.0 mm 0.00 in0.0 mm 0.04 in1.0 mm
11:45 AM 57.7°F14.3°C 51.3°F10.7°C 79% 4.7 mph SW7.6 kmh SW 13.0 mph20.9 kmh 30.38 in1028.8 mb 0.00 in0.0 mm 0.00 in0.0 mm 0.04 in1.0 mm
11:40 AM 57.7°F14.3°C 51.6°F10.9°C 80% 3.4 mph SW5.5 kmh SW 13.6 mph21.9 kmh 30.38 in1028.8 mb 0.00 in0.0 mm 0.00 in0.0 mm 0.04 in1.0 mm
11:35 AM 57.9°F14.4°C 51.4°F10.8°C 79% 8.1 mph SW13.0 kmh SW 18.1 mph29.1 kmh 30.38 in1028.8 mb 0.00 in0.0 mm 0.00 in0.0 mm 0.04 in1.0 mm
11:30 AM 58.3°F14.6°C 51.1°F10.6°C 77% 4.7 mph SW7.6 kmh SW 21.5 mph34.6 kmh 30.38 in1028.8 mb 0.00 in0.0 mm 0.00 in0.0 mm 0.04 in1.0 mm
11:25 AM 58.6°F14.8°C 51.1°F10.6°C 76% 6.3 mph SW10.1 kmh SW 21.5 mph34.6 kmh 30.37 in1028.4 mb 0.00 in0.0 mm 0.00 in0.0 mm 0.04 in1.0 mm
11:20 AM 59.2°F15.1°C 51.6°F10.9°C 76% 4.3 mph SW6.9 kmh SW 17.2 mph27.7 kmh 30.37 in1028.4 mb 0.00 in0.0 mm 0.00 in0.0 mm 0.04 in1.0 mm
11:15 AM 59.0°F15.0°C 51.4°F10.8°C 76% 3.8 mph SW6.1 kmh SW 9.8 mph15.8 kmh 30.37 in1028.4 mb 0.00 in0.0 mm 0.00 in0.0 mm 0.04 in1.0 mm
11:10 AM 58.8°F14.9°C 51.3°F10.7°C 76% 7.4 mph SW11.9 kmh SW 21.3 mph34.3 kmh 30.36 in1028.1 mb 0.00 in0.0 mm 0.00 in0.0 mm 0.04 in1.0 mm
11:05 AM 58.8°F14.9°C 51.3°F10.7°C 76% 6.5 mph SW10.5 kmh SW 21.3 mph34.3 kmh 30.36 in1028.1 mb 0.00 in0.0 mm 0.00 in0.0 mm 0.04 in1.0 mm
11:00 AM 59.4°F15.2°C 52.2°F11.2°C 77% 11.2 mph SSW18.0 kmh SSW 13.0 mph20.9 kmh 30.36 in1028.1 mb 0.00 in0.0 mm 0.00 in0.0 mm 0.04 in1.0 mm
10:55 AM 58.8°F14.9°C 51.6°F10.9°C 77% 5.1 mph SW8.2 kmh SW 17.4 mph28.0 kmh 30.35 in1027.8 mb 0.00 in0.0 mm 0.00 in0.0 mm 0.04 in1.0 mm
10:50 AM 58.8°F14.9°C 51.6°F10.9°C 77% 5.8 mph SW9.3 kmh SW 17.4 mph28.0 kmh 30.35 in1027.8 mb 0.00 in0.0 mm 0.00 in0.0 mm 0.04 in1.0 mm
10:45 AM 58.6°F14.8°C 51.4°F10.8°C 77% 3.6 mph SW5.8 kmh SW 16.6 mph26.7 kmh 30.35 in1027.8 mb 0.00 in0.0 mm 0.00 in0.0 mm 0.04 in1.0 mm
10:40 AM 58.5°F14.7°C 51.3°F10.7°C 77% 5.1 mph SW8.2 kmh SW 16.1 mph25.9 kmh 30.35 in1027.8 mb 0.00 in0.0 mm 0.00 in0.0 mm 0.04 in1.0 mm
10:35 AM 58.8°F14.9°C 51.6°F10.9°C 77% 11.4 mph SW18.3 kmh SW 16.6 mph26.7 kmh 30.35 in1027.8 mb 0.00 in0.0 mm 0.00 in0.0 mm 0.04 in1.0 mm
10:30 AM 59.0°F15.0°C 51.4°F10.8°C 76% 3.8 mph SW6.1 kmh SW 17.7 mph28.5 kmh 30.35 in1027.8 mb 0.00 in0.0 mm 0.00 in0.0 mm 0.04 in1.0 mm
10:25 AM 58.8°F14.9°C 51.6°F10.9°C 77% 4.0 mph SW6.4 kmh SW 17.7 mph28.5 kmh 30.34 in1027.4 mb 0.00 in0.0 mm 0.00 in0.0 mm 0.04 in1.0 mm
10:20 AM 58.8°F14.9°C 51.6°F10.9°C 77% 10.3 mph SW16.6 kmh SW 17.4 mph28.0 kmh 30.34 in1027.4 mb 0.00 in0.0 mm 0.00 in0.0 mm 0.04 in1.0 mm
10:15 AM 58.8°F14.9°C 51.6°F10.9°C 77% 4.7 mph SW7.6 kmh SW 17.9 mph28.8 kmh 30.34 in1027.4 mb 0.00 in0.0 mm 0.00 in0.0 mm 0.04 in1.0 mm
10:10 AM 59.0°F15.0°C 51.8°F11.0°C 77% 5.4 mph SW8.7 kmh SW 18.8 mph30.3 kmh 30.33 in1027.1 mb 0.00 in0.0 mm 0.00 in0.0 mm 0.04 in1.0 mm
10:05 AM 58.8°F14.9°C 50.9°F10.5°C 75% 3.1 mph SW5.0 kmh SW 21.3 mph34.3 kmh 30.32 in1026.8 mb 0.00 in0.0 mm 0.00 in0.0 mm 0.04 in1.0 mm
10:00 AM 58.8°F14.9°C 51.3°F10.7°C 76% 5.4 mph SW8.7 kmh SW 21.3 mph34.3 kmh 30.32 in1026.8 mb 0.00 in0.0 mm 0.00 in0.0 mm 0.04 in1.0 mm
09:55 AM 58.8°F14.9°C 50.9°F10.5°C 75% 5.8 mph SW9.3 kmh SW 18.3 mph29.5 kmh 30.32 in1026.8 mb 0.00 in0.0 mm 0.00 in0.0 mm 0.04 in1.0 mm
09:50 AM 58.8°F14.9°C 50.9°F10.5°C 75% 6.5 mph SW10.5 kmh SW 13.2 mph21.2 kmh 30.32 in1026.8 mb 0.00 in0.0 mm 0.00 in0.0 mm 0.04 in1.0 mm
09:45 AM 58.8°F14.9°C 50.9°F10.5°C 75% 6.9 mph SW11.1 kmh SW 14.3 mph23.0 kmh 30.31 in1026.4 mb 0.00 in0.0 mm 0.00 in0.0 mm 0.04 in1.0 mm
09:40 AM 58.6°F14.8°C 50.7°F10.4°C 75% 10.5 mph SW16.9 kmh SW 18.1 mph29.1 kmh 30.31 in1026.4 mb 0.00 in0.0 mm 0.00 in0.0 mm 0.04 in1.0 mm
09:35 AM 57.9°F14.4°C 50.0°F10.0°C 75% 7.4 mph SW11.9 kmh SW 18.1 mph29.1 kmh 30.31 in1026.4 mb 0.00 in0.0 mm 0.00 in0.0 mm 0.04 in1.0 mm
09:30 AM 58.1°F14.5°C 49.8°F9.9°C 74% 7.4 mph SW11.9 kmh SW 15.0 mph24.1 kmh 30.30 in1026.1 mb 0.00 in0.0 mm 0.00 in0.0 mm 0.04 in1.0 mm
09:25 AM 57.9°F14.4°C 50.0°F10.0°C 75% 5.6 mph SW9.0 kmh SW 14.3 mph23.0 kmh 30.30 in1026.1 mb 0.00 in0.0 mm 0.00 in0.0 mm 0.04 in1.0 mm
09:20 AM 57.9°F14.4°C 50.0°F10.0°C 75% 8.5 mph WSW13.7 kmh WSW 16.1 mph25.9 kmh 30.30 in1026.1 mb 0.00 in0.0 mm 0.00 in0.0 mm 0.04 in1.0 mm
09:15 AM 57.9°F14.4°C 50.0°F10.0°C 75% 3.1 mph WSW5.0 kmh WSW 16.1 mph25.9 kmh 30.30 in1026.1 mb 0.00 in0.0 mm 0.00 in0.0 mm 0.04 in1.0 mm
09:10 AM 57.6°F14.2°C 50.4°F10.2°C 77% 4.7 mph WNW7.6 kmh WNW 10.5 mph16.9 kmh 30.30 in1026.1 mb 0.00 in0.0 mm 0.00 in0.0 mm 0.04 in1.0 mm
09:05 AM 57.0°F13.9°C 49.8°F9.9°C 77% Calm Calm 10.5 mph16.9 kmh 30.30 in1026.1 mb 0.00 in0.0 mm 0.00 in0.0 mm 0.04 in1.0 mm
09:00 AM 56.8°F13.8°C 49.6°F9.8°C 77% 2.5 mph W4.0 kmh W 10.1 mph16.3 kmh 30.29 in1025.7 mb 0.00 in0.0 mm 0.00 in0.0 mm 0.04 in1.0 mm
08:55 AM 56.8°F13.8°C 50.0°F10.0°C 78% 5.4 mph W8.7 kmh W 10.1 mph16.3 kmh 30.30 in1026.1 mb 0.00 in0.0 mm 0.00 in0.0 mm 0.04 in1.0 mm
08:50 AM 57.0°F13.9°C 50.2°F10.1°C 78% 7.4 mph WSW11.9 kmh WSW 11.2 mph18.0 kmh 30.30 in1026.1 mb 0.00 in0.0 mm 0.00 in0.0 mm 0.04 in1.0 mm
08:45 AM 57.4°F14.1°C 50.2°F10.1°C 77% 2.5 mph WSW4.0 kmh WSW 11.2 mph18.0 kmh 30.30 in1026.1 mb 0.00 in0.0 mm 0.00 in0.0 mm 0.04 in1.0 mm
08:40 AM 57.6°F14.2°C 50.0°F10.0°C 76% Calm Calm 6.3 mph10.1 kmh 30.29 in1025.7 mb 0.00 in0.0 mm 0.00 in0.0 mm 0.04 in1.0 mm
08:35 AM 57.4°F14.1°C 50.9°F10.5°C 79% Calm Calm 13.6 mph21.9 kmh 30.29 in1025.7 mb 0.00 in0.0 mm 0.00 in0.0 mm 0.04 in1.0 mm
08:30 AM 56.8°F13.8°C 50.0°F10.0°C 78% 1.3 mph SW2.1 kmh SW 13.6 mph21.9 kmh 30.29 in1025.7 mb 0.00 in0.0 mm 0.00 in0.0 mm 0.04 in1.0 mm
08:25 AM 56.3°F13.5°C 50.2°F10.1°C 80% Calm Calm 6.0 mph9.7 kmh 30.29 in1025.7 mb 0.00 in0.0 mm 0.00 in0.0 mm 0.04 in1.0 mm
08:20 AM 56.1°F13.4°C 50.3°F10.2°C 81% 1.6 mph NW2.6 kmh NW 4.9 mph7.9 kmh 30.29 in1025.7 mb 0.00 in0.0 mm 0.00 in0.0 mm 0.04 in1.0 mm
08:15 AM 55.8°F13.2°C 50.3°F10.2°C 82% Calm Calm 4.5 mph7.2 kmh 30.29 in1025.7 mb 0.00 in0.0 mm 0.00 in0.0 mm 0.04 in1.0 mm
08:10 AM 55.2°F12.9°C 50.4°F10.2°C 84% Calm Calm 2.7 mph4.3 kmh 30.29 in1025.7 mb 0.00 in0.0 mm 0.00 in0.0 mm 0.04 in1.0 mm
08:05 AM 54.7°F12.6°C 50.2°F10.1°C 85% Calm Calm 2.2 mph3.5 kmh 30.29 in1025.7 mb 0.00 in0.0 mm 0.00 in0.0 mm 0.04 in1.0 mm
08:00 AM 54.1°F12.3°C 50.0°F10.0°C 86% Calm Calm 2.2 mph3.5 kmh 30.29 in1025.7 mb 0.00 in0.0 mm 0.00 in0.0 mm 0.04 in1.0 mm
07:55 AM 53.8°F12.1°C 50.0°F10.0°C 87% Calm Calm 1.6 mph2.6 kmh 30.29 in1025.7 mb 0.00 in0.0 mm 0.00 in0.0 mm 0.04 in1.0 mm
07:50 AM 53.4°F11.9°C 49.6°F9.8°C 87% 0.7 mph NNE1.1 kmh NNE 3.1 mph5.0 kmh 30.29 in1025.7 mb 0.00 in0.0 mm 0.00 in0.0 mm 0.04 in1.0 mm
07:45 AM 53.2°F11.8°C 49.4°F9.7°C 87% Calm Calm 3.1 mph5.0 kmh 30.29 in1025.7 mb 0.00 in0.0 mm 0.00 in0.0 mm 0.04 in1.0 mm
07:40 AM 53.2°F11.8°C 49.7°F9.8°C 88% Calm Calm 1.6 mph2.6 kmh 30.29 in1025.7 mb 0.00 in0.0 mm 0.00 in0.0 mm 0.04 in1.0 mm
07:35 AM 52.9°F11.6°C 49.4°F9.7°C 88% Calm Calm 0.9 mph1.4 kmh 30.29 in1025.7 mb 0.00 in0.0 mm 0.00 in0.0 mm 0.04 in1.0 mm
07:30 AM 52.9°F11.6°C 49.4°F9.7°C 88% Calm Calm 1.3 mph2.1 kmh 30.29 in1025.7 mb 0.00 in0.0 mm 0.00 in0.0 mm 0.04 in1.0 mm
07:25 AM 52.7°F11.5°C 49.2°F9.6°C 88% Calm Calm 1.6 mph2.6 kmh 30.29 in1025.7 mb 0.00 in0.0 mm 0.00 in0.0 mm 0.04 in1.0 mm
07:20 AM 52.7°F11.5°C 49.2°F9.6°C 88% Calm Calm 3.1 mph5.0 kmh 30.29 in1025.7 mb 0.00 in0.0 mm 0.00 in0.0 mm 0.04 in1.0 mm
07:15 AM 52.7°F11.5°C 49.2°F9.6°C 88% Calm Calm 3.1 mph5.0 kmh 30.29 in1025.7 mb 0.00 in0.0 mm 0.00 in0.0 mm 0.04 in1.0 mm
07:10 AM 52.5°F11.4°C 49.0°F9.4°C 88% Calm Calm 1.3 mph2.1 kmh 30.29 in1025.7 mb 0.00 in0.0 mm 0.00 in0.0 mm 0.04 in1.0 mm
07:05 AM 52.5°F11.4°C 49.0°F9.4°C 88% 1.3 mph SW2.1 kmh SW 2.2 mph3.5 kmh 30.29 in1025.7 mb 0.00 in0.0 mm 0.00 in0.0 mm 0.04 in1.0 mm
07:00 AM 52.5°F11.4°C 49.0°F9.4°C 88% 1.8 mph SW2.9 kmh SW 2.2 mph3.5 kmh 30.29 in1025.7 mb 0.00 in0.0 mm 0.00 in0.0 mm 0.04 in1.0 mm
06:55 AM 52.5°F11.4°C 49.0°F9.4°C 88% Calm Calm 3.4 mph5.5 kmh 30.30 in1026.1 mb 0.00 in0.0 mm 0.00 in0.0 mm 0.04 in1.0 mm
06:50 AM 52.5°F11.4°C 48.7°F9.3°C 87% 1.6 mph SW2.6 kmh SW 3.4 mph5.5 kmh 30.30 in1026.1 mb 0.00 in0.0 mm 0.00 in0.0 mm 0.04 in1.0 mm
06:45 AM 52.5°F11.4°C 48.7°F9.3°C 87% 0.7 mph SW1.1 kmh SW 1.3 mph2.1 kmh 30.29 in1025.7 mb 0.00 in0.0 mm 0.00 in0.0 mm 0.04 in1.0 mm
06:40 AM 52.3°F11.3°C 48.5°F9.2°C 87% Calm Calm 5.1 mph8.2 kmh 30.30 in1026.1 mb 0.00 in0.0 mm 0.00 in0.0 mm 0.04 in1.0 mm
06:35 AM 52.3°F11.3°C 48.5°F9.2°C 87% Calm Calm 5.1 mph8.2 kmh 30.30 in1026.1 mb 0.00 in0.0 mm 0.00 in0.0 mm 0.04 in1.0 mm
06:30 AM 52.0°F11.1°C 48.5°F9.2°C 88% 2.7 mph NE4.3 kmh NE 4.5 mph7.2 kmh 30.30 in1026.1 mb 0.00 in0.0 mm 0.00 in0.0 mm 0.04 in1.0 mm
06:25 AM 51.8°F11.0°C 48.3°F9.1°C 88% 4.5 mph NE7.2 kmh NE 4.5 mph7.2 kmh 30.30 in1026.1 mb 0.00 in0.0 mm 0.00 in0.0 mm 0.04 in1.0 mm
06:20 AM 51.6°F10.9°C 48.1°F8.9°C 88% 2.2 mph NE3.5 kmh NE 4.0 mph6.4 kmh 30.30 in1026.1 mb 0.00 in0.0 mm 0.00 in0.0 mm 0.04 in1.0 mm
06:15 AM 51.3°F10.7°C 47.8°F8.8°C 88% Calm Calm 2.5 mph4.0 kmh 30.30 in1026.1 mb 0.00 in0.0 mm 0.00 in0.0 mm 0.04 in1.0 mm
06:10 AM 51.1°F10.6°C 47.6°F8.7°C 88% 1.6 mph SSW2.6 kmh SSW 3.1 mph5.0 kmh 30.30 in1026.1 mb 0.00 in0.0 mm 0.00 in0.0 mm 0.04 in1.0 mm
06:05 AM 50.9°F10.5°C 47.4°F8.6°C 88% Calm Calm 3.1 mph5.0 kmh 30.30 in1026.1 mb 0.00 in0.0 mm 0.00 in0.0 mm 0.04 in1.0 mm
06:00 AM 50.9°F10.5°C 47.4°F8.6°C 88% 2.5 mph SW4.0 kmh SW 3.1 mph5.0 kmh 30.30 in1026.1 mb 0.00 in0.0 mm 0.00 in0.0 mm 0.04 in1.0 mm
05:55 AM 50.9°F10.5°C 47.4°F8.6°C 88% Calm Calm 3.1 mph5.0 kmh 30.30 in1026.1 mb 0.00 in0.0 mm 0.00 in0.0 mm 0.04 in1.0 mm
05:50 AM 50.9°F10.5°C 47.4°F8.6°C 88% Calm Calm 2.0 mph3.2 kmh 30.30 in1026.1 mb 0.00 in0.0 mm 0.00 in0.0 mm 0.04 in1.0 mm
05:45 AM 50.9°F10.5°C 47.4°F8.6°C 88% 0.9 mph SSW1.4 kmh SSW 3.8 mph6.1 kmh 30.30 in1026.1 mb 0.00 in0.0 mm 0.00 in0.0 mm 0.04 in1.0 mm
05:40 AM 50.9°F10.5°C 47.4°F8.6°C 88% Calm Calm 3.8 mph6.1 kmh 30.30 in1026.1 mb 0.00 in0.0 mm 0.00 in0.0 mm 0.04 in1.0 mm
05:35 AM 50.9°F10.5°C 47.4°F8.6°C 88% Calm Calm 2.9 mph4.7 kmh 30.30 in1026.1 mb 0.00 in0.0 mm 0.00 in0.0 mm 0.04 in1.0 mm
05:30 AM 50.7°F10.4°C 46.9°F8.3°C 87% Calm Calm 3.6 mph5.8 kmh 30.30 in1026.1 mb 0.00 in0.0 mm 0.00 in0.0 mm 0.04 in1.0 mm
05:25 AM 50.9°F10.5°C 46.8°F8.2°C 86% Calm Calm 3.6 mph5.8 kmh 30.30 in1026.1 mb 0.00 in0.0 mm 0.00 in0.0 mm 0.04 in1.0 mm
05:20 AM 51.1°F10.6°C 47.0°F8.3°C 86% 3.1 mph SW5.0 kmh SW 3.1 mph5.0 kmh 30.30 in1026.1 mb 0.00 in0.0 mm 0.00 in0.0 mm 0.04 in1.0 mm
05:15 AM 51.3°F10.7°C 47.2°F8.4°C 86% 1.8 mph S2.9 kmh S 2.9 mph4.7 kmh 30.30 in1026.1 mb 0.00 in0.0 mm 0.00 in0.0 mm 0.04 in1.0 mm
05:10 AM 51.4°F10.8°C 47.0°F8.3°C 85% Calm Calm 2.9 mph4.7 kmh 30.30 in1026.1 mb 0.00 in0.0 mm 0.00 in0.0 mm 0.04 in1.0 mm
05:05 AM 51.6°F10.9°C 46.9°F8.3°C 84% 2.2 mph SSE3.5 kmh SSE 2.2 mph3.5 kmh 30.30 in1026.1 mb 0.00 in0.0 mm 0.00 in0.0 mm 0.04 in1.0 mm
05:00 AM 51.8°F11.0°C 47.1°F8.4°C 84% 0.9 mph SE1.4 kmh SE 2.2 mph3.5 kmh 30.30 in1026.1 mb 0.00 in0.0 mm 0.00 in0.0 mm 0.04 in1.0 mm
04:50 AM 52.0°F11.1°C 47.0°F8.3°C 83% 1.8 mph ESE2.9 kmh ESE 3.6 mph5.8 kmh 30.30 in1026.1 mb 0.00 in0.0 mm 0.00 in0.0 mm 0.04 in1.0 mm
04:45 AM 52.2°F11.2°C 47.1°F8.4°C 83% Calm Calm 3.8 mph6.1 kmh 30.30 in1026.1 mb 0.00 in0.0 mm 0.00 in0.0 mm 0.04 in1.0 mm
04:40 AM 52.2°F11.2°C 47.1°F8.4°C 83% 3.8 mph S6.1 kmh S 8.9 mph14.3 kmh 30.30 in1026.1 mb 0.00 in0.0 mm 0.00 in0.0 mm 0.04 in1.0 mm
04:35 AM 52.3°F11.3°C 47.3°F8.5°C 83% 1.8 mph S2.9 kmh S 8.9 mph14.3 kmh 30.30 in1026.1 mb 0.00 in0.0 mm 0.00 in0.0 mm 0.04 in1.0 mm
04:30 AM 52.5°F11.4°C 47.2°F8.4°C 82% 2.5 mph S4.0 kmh S 11.2 mph18.0 kmh 30.30 in1026.1 mb 0.00 in0.0 mm 0.00 in0.0 mm 0.04 in1.0 mm
04:25 AM 52.5°F11.4°C 47.2°F8.4°C 82% 5.8 mph S9.3 kmh S 15.7 mph25.3 kmh 30.30 in1026.1 mb 0.00 in0.0 mm 0.00 in0.0 mm 0.04 in1.0 mm
04:20 AM 52.7°F11.5°C 47.4°F8.6°C 82% 8.5 mph SSW13.7 kmh SSW 19.9 mph32.0 kmh 30.30 in1026.1 mb 0.00 in0.0 mm 0.00 in0.0 mm 0.04 in1.0 mm
04:15 AM 52.9°F11.6°C 47.6°F8.7°C 82% 18.3 mph SSW29.5 kmh SSW 20.8 mph33.5 kmh 30.30 in1026.1 mb 0.00 in0.0 mm 0.00 in0.0 mm 0.04 in1.0 mm
04:10 AM 52.7°F11.5°C 47.4°F8.6°C 82% 8.7 mph SSW14.0 kmh SSW 21.3 mph34.3 kmh 30.30 in1026.1 mb 0.00 in0.0 mm 0.00 in0.0 mm 0.04 in1.0 mm
04:05 AM 52.5°F11.4°C 47.2°F8.4°C 82% 13.0 mph SSW20.9 kmh SSW 21.3 mph34.3 kmh 30.30 in1026.1 mb 0.00 in0.0 mm 0.00 in0.0 mm 0.04 in1.0 mm
04:00 AM 52.3°F11.3°C 47.3°F8.5°C 83% 11.9 mph S19.2 kmh S 19.7 mph31.7 kmh 30.30 in1026.1 mb 0.00 in0.0 mm 0.00 in0.0 mm 0.04 in1.0 mm
03:55 AM 52.3°F11.3°C 47.6°F8.7°C 84% 6.3 mph S10.1 kmh S 8.9 mph14.3 kmh 30.30 in1026.1 mb 0.00 in0.0 mm 0.00 in0.0 mm 0.04 in1.0 mm
03:50 AM 52.3°F11.3°C 47.6°F8.7°C 84% 3.1 mph SSW5.0 kmh SSW 13.2 mph21.2 kmh 30.30 in1026.1 mb 0.02 in0.5 mm 0.00 in0.0 mm 0.04 in1.0 mm
03:45 AM 52.3°F11.3°C 47.6°F8.7°C 84% 6.7 mph SSW10.8 kmh SSW 13.2 mph21.2 kmh 30.30 in1026.1 mb 0.02 in0.5 mm 0.00 in0.0 mm 0.04 in1.0 mm
03:40 AM 52.5°F11.4°C 48.4°F9.1°C 86% 2.7 mph SSW4.3 kmh SSW 13.0 mph20.9 kmh 30.30 in1026.1 mb 0.02 in0.5 mm 0.00 in0.0 mm 0.04 in1.0 mm
03:35 AM 52.7°F11.5°C 48.6°F9.2°C 86% 6.3 mph S10.1 kmh S 13.0 mph20.9 kmh 30.30 in1026.1 mb 0.02 in0.5 mm 0.00 in0.0 mm 0.04 in1.0 mm
03:30 AM 52.9°F11.6°C 49.1°F9.5°C 87% 5.1 mph S8.2 kmh S 6.9 mph11.1 kmh 30.31 in1026.4 mb 0.02 in0.5 mm 0.00 in0.0 mm 0.04 in1.0 mm
03:25 AM 52.9°F11.6°C 49.4°F9.7°C 88% 2.0 mph SSW3.2 kmh SSW 12.1 mph19.5 kmh 30.31 in1026.4 mb 0.02 in0.5 mm 0.00 in0.0 mm 0.04 in1.0 mm
03:20 AM 53.1°F11.7°C 49.6°F9.8°C 88% 5.1 mph SW8.2 kmh SW 12.1 mph19.5 kmh 30.31 in1026.4 mb 0.02 in0.5 mm 0.00 in0.0 mm 0.04 in1.0 mm
03:15 AM 52.9°F11.6°C 49.4°F9.7°C 88% 7.4 mph SSW11.9 kmh SSW 11.2 mph18.0 kmh 30.31 in1026.4 mb 0.02 in0.5 mm 0.00 in0.0 mm 0.04 in1.0 mm
03:10 AM 53.1°F11.7°C 49.6°F9.8°C 88% 6.0 mph SSW9.7 kmh SSW 8.9 mph14.3 kmh 30.31 in1026.4 mb 0.02 in0.5 mm 0.00 in0.0 mm 0.04 in1.0 mm
03:05 AM 53.2°F11.8°C 49.7°F9.8°C 88% 4.7 mph SSW7.6 kmh SSW 13.2 mph21.2 kmh 30.31 in1026.4 mb 0.02 in0.5 mm 0.00 in0.0 mm 0.04 in1.0 mm
03:00 AM 52.9°F11.6°C 49.7°F9.8°C 89% 6.7 mph SSW10.8 kmh SSW 13.2 mph21.2 kmh 30.31 in1026.4 mb 0.02 in0.5 mm 0.00 in0.0 mm 0.04 in1.0 mm
02:55 AM 52.7°F11.5°C 49.5°F9.7°C 89% 8.3 mph S13.4 kmh S 9.4 mph15.1 kmh 30.31 in1026.4 mb 0.02 in0.5 mm 0.24 in6.1 mm 0.04 in1.0 mm
02:50 AM 52.5°F11.4°C 49.6°F9.8°C 90% 4.5 mph S7.2 kmh S 7.6 mph12.2 kmh 30.31 in1026.4 mb 0.00 in0.0 mm 0.00 in0.0 mm 0.02 in0.5 mm
02:45 AM 52.7°F11.5°C 49.8°F9.9°C 90% 1.3 mph SSW2.1 kmh SSW 3.4 mph5.5 kmh 30.31 in1026.4 mb 0.00 in0.0 mm 0.00 in0.0 mm 0.02 in0.5 mm
02:40 AM 52.7°F11.5°C 49.8°F9.9°C 90% Calm Calm 2.7 mph4.3 kmh 30.31 in1026.4 mb 0.00 in0.0 mm 0.00 in0.0 mm 0.02 in0.5 mm
02:35 AM 52.9°F11.6°C 49.7°F9.8°C 89% Calm Calm 2.9 mph4.7 kmh 30.31 in1026.4 mb 0.00 in0.0 mm 0.00 in0.0 mm 0.02 in0.5 mm
02:30 AM 53.2°F11.8°C 50.1°F10.1°C 89% Calm Calm 2.9 mph4.7 kmh 30.31 in1026.4 mb 0.00 in0.0 mm 0.00 in0.0 mm 0.02 in0.5 mm
02:25 AM 53.4°F11.9°C 50.2°F10.1°C 89% Calm Calm 3.6 mph5.8 kmh 30.31 in1026.4 mb 0.00 in0.0 mm 0.00 in0.0 mm 0.02 in0.5 mm
02:20 AM 53.4°F11.9°C 50.5°F10.3°C 90% 2.2 mph E3.5 kmh E 3.6 mph5.8 kmh 30.31 in1026.4 mb 0.00 in0.0 mm 0.00 in0.0 mm 0.02 in0.5 mm
02:15 AM 53.4°F11.9°C 50.5°F10.3°C 90% Calm Calm 3.8 mph6.1 kmh 30.31 in1026.4 mb 0.00 in0.0 mm 0.00 in0.0 mm 0.02 in0.5 mm
02:10 AM 53.4°F11.9°C 50.5°F10.3°C 90% Calm Calm 5.4 mph8.7 kmh 30.31 in1026.4 mb 0.00 in0.0 mm 0.00 in0.0 mm 0.02 in0.5 mm
02:05 AM 53.4°F11.9°C 50.5°F10.3°C 90% 1.8 mph WSW2.9 kmh WSW 5.4 mph8.7 kmh 30.31 in1026.4 mb 0.02 in0.5 mm 0.00 in0.0 mm 0.02 in0.5 mm
02:00 AM 53.8°F12.1°C 50.9°F10.5°C 90% 1.3 mph SW2.1 kmh SW 2.2 mph3.5 kmh 30.31 in1026.4 mb 0.02 in0.5 mm 0.00 in0.0 mm 0.02 in0.5 mm
01:55 AM 54.0°F12.2°C 51.1°F10.6°C 90% Calm Calm 2.9 mph4.7 kmh 30.31 in1026.4 mb 0.02 in0.5 mm 0.00 in0.0 mm 0.02 in0.5 mm
01:50 AM 54.3°F12.4°C 51.4°F10.8°C 90% Calm Calm 2.9 mph4.7 kmh 30.31 in1026.4 mb 0.02 in0.5 mm 0.00 in0.0 mm 0.02 in0.5 mm
01:45 AM 54.3°F12.4°C 51.4°F10.8°C 90% Calm Calm 5.8 mph9.3 kmh 30.31 in1026.4 mb 0.02 in0.5 mm 0.00 in0.0 mm 0.02 in0.5 mm
01:40 AM 54.3°F12.4°C 51.7°F10.9°C 91% Calm Calm 5.8 mph9.3 kmh 30.31 in1026.4 mb 0.02 in0.5 mm 0.00 in0.0 mm 0.02 in0.5 mm
01:35 AM 54.1°F12.3°C 51.5°F10.8°C 91% 5.1 mph SSW8.2 kmh SSW 9.2 mph14.8 kmh 30.31 in1026.4 mb 0.02 in0.5 mm 0.00 in0.0 mm 0.02 in0.5 mm
01:30 AM 54.1°F12.3°C 51.8°F11.0°C 92% 3.6 mph SSW5.8 kmh SSW 9.2 mph14.8 kmh 30.31 in1026.4 mb 0.02 in0.5 mm 0.00 in0.0 mm 0.02 in0.5 mm
01:25 AM 54.0°F12.2°C 51.7°F10.9°C 92% 5.4 mph S8.7 kmh S 7.6 mph12.2 kmh 30.31 in1026.4 mb 0.02 in0.5 mm 0.00 in0.0 mm 0.02 in0.5 mm
01:20 AM 54.0°F12.2°C 51.7°F10.9°C 92% Calm Calm 1.3 mph2.1 kmh 30.32 in1026.8 mb 0.02 in0.5 mm 0.00 in0.0 mm 0.02 in0.5 mm
01:15 AM 53.8°F12.1°C 51.5°F10.8°C 92% 0.7 mph SW1.1 kmh SW 1.3 mph2.1 kmh 30.31 in1026.4 mb 0.02 in0.5 mm 0.00 in0.0 mm 0.02 in0.5 mm
01:10 AM 53.8°F12.1°C 51.5°F10.8°C 92% Calm Calm 2.5 mph4.0 kmh 30.32 in1026.8 mb 0.02 in0.5 mm 0.24 in6.1 mm 0.02 in0.5 mm
01:05 AM 53.8°F12.1°C 51.5°F10.8°C 92% Calm Calm 3.1 mph5.0 kmh 30.32 in1026.8 mb 0.00 in0.0 mm 0.00 in0.0 mm 0.00 in0.0 mm
01:00 AM 53.8°F12.1°C 51.5°F10.8°C 92% Calm Calm 3.6 mph5.8 kmh 30.32 in1026.8 mb 0.00 in0.0 mm 0.00 in0.0 mm 0.00 in0.0 mm
12:55 AM 54.0°F12.2°C 51.7°F10.9°C 92% 1.6 mph SW2.6 kmh SW 3.6 mph5.8 kmh 30.32 in1026.8 mb 0.00 in0.0 mm 0.00 in0.0 mm 0.00 in0.0 mm
12:50 AM 54.0°F12.2°C 51.7°F10.9°C 92% Calm Calm 6.3 mph10.1 kmh 30.32 in1026.8 mb 0.00 in0.0 mm 0.00 in0.0 mm 0.00 in0.0 mm
12:45 AM 54.0°F12.2°C 51.7°F10.9°C 92% 2.5 mph SW4.0 kmh SW 6.3 mph10.1 kmh 30.32 in1026.8 mb 0.00 in0.0 mm 0.00 in0.0 mm 0.00 in0.0 mm
12:40 AM 54.1°F12.3°C 51.8°F11.0°C 92% 2.0 mph SSW3.2 kmh SSW 5.6 mph9.0 kmh 30.32 in1026.8 mb 0.00 in0.0 mm 0.00 in0.0 mm 0.00 in0.0 mm
12:35 AM 54.1°F12.3°C 51.8°F11.0°C 92% 2.2 mph SSW3.5 kmh SSW 4.3 mph6.9 kmh 30.32 in1026.8 mb 0.00 in0.0 mm 0.00 in0.0 mm 0.00 in0.0 mm
12:30 AM 54.3°F12.4°C 52.0°F11.1°C 92% 2.0 mph SSW3.2 kmh SSW 4.3 mph6.9 kmh 30.32 in1026.8 mb 0.00 in0.0 mm 0.00 in0.0 mm 0.00 in0.0 mm
12:25 AM 54.3°F12.4°C 52.0°F11.1°C 92% Calm Calm 4.3 mph6.9 kmh 30.32 in1026.8 mb 0.00 in0.0 mm 0.00 in0.0 mm 0.00 in0.0 mm
12:20 AM 54.3°F12.4°C 52.3°F11.3°C 93% Calm Calm 4.3 mph6.9 kmh 30.32 in1026.8 mb 0.00 in0.0 mm 0.00 in0.0 mm 0.00 in0.0 mm
12:15 AM 54.5°F12.5°C 52.5°F11.4°C 93% 1.6 mph SW2.6 kmh SW 2.5 mph4.0 kmh 30.32 in1026.8 mb 0.00 in0.0 mm 0.00 in0.0 mm 0.00 in0.0 mm
12:10 AM 54.5°F12.5°C 52.5°F11.4°C 93% Calm Calm 0.9 mph1.4 kmh 30.32 in1026.8 mb 0.00 in0.0 mm 0.00 in0.0 mm 0.00 in0.0 mm
12:05 AM 54.5°F12.5°C 52.5°F11.4°C 93% Calm Calm 0.9 mph1.4 kmh 30.32 in1026.8 mb 0.00 in0.0 mm 0.00 in0.0 mm 0.00 in0.0 mm
12:00 AM 54.5°F12.5°C 52.5°F11.4°C 93% Calm Calm 1.1 mph1.8 kmh 30.32 in1026.8 mb 0.00 in0.0 mm 0.00 in0.0 mm 0.00 in0.0 mm